sensor_id;sensor_type;location;lat;lon;timestamp;pressure;altitude;pressure_sealevel;temperature;humidity
72525;BME280;60547;48.502;8.996;2022-07-25T00:00:21;97693.78;;;21.32;66.54
72525;BME280;60547;48.502;8.996;2022-07-25T00:02:47;97695.56;;;21.24;67.07
72525;BME280;60547;48.502;8.996;2022-07-25T00:05:12;97688.59;;;21.14;67.21
72525;BME280;60547;48.502;8.996;2022-07-25T00:07:37;97698.41;;;21.24;67.04
72525;BME280;60547;48.502;8.996;2022-07-25T00:10:03;97686.00;;;21.16;66.94
72525;BME280;60547;48.502;8.996;2022-07-25T00:12:29;97687.28;;;21.09;66.82
72525;BME280;60547;48.502;8.996;2022-07-25T00:14:54;97696.84;;;21.23;66.49
72525;BME280;60547;48.502;8.996;2022-07-25T00:17:19;97700.94;;;21.16;67.04
72525;BME280;60547;48.502;8.996;2022-07-25T00:19:45;97685.50;;;21.12;66.80
72525;BME280;60547;48.502;8.996;2022-07-25T00:22:10;97693.22;;;21.17;66.65
72525;BME280;60547;48.502;8.996;2022-07-25T00:24:36;97696.06;;;21.17;67.01
72525;BME280;60547;48.502;8.996;2022-07-25T00:27:01;97699.69;;;21.23;66.62
72525;BME280;60547;48.502;8.996;2022-07-25T00:29:27;97704.56;;;21.28;66.47
72525;BME280;60547;48.502;8.996;2022-07-25T00:31:53;97711.00;;;21.28;66.71
72525;BME280;60547;48.502;8.996;2022-07-25T00:34:18;97707.13;;;21.20;67.14
72525;BME280;60547;48.502;8.996;2022-07-25T00:36:44;97706.34;;;21.14;68.20
72525;BME280;60547;48.502;8.996;2022-07-25T00:39:09;97708.66;;;21.10;67.98
72525;BME280;60547;48.502;8.996;2022-07-25T00:41:34;97690.63;;;20.85;68.86
72525;BME280;60547;48.502;8.996;2022-07-25T00:44:00;97710.69;;;20.87;68.77
72525;BME280;60547;48.502;8.996;2022-07-25T00:46:25;97696.75;;;20.67;69.49
72525;BME280;60547;48.502;8.996;2022-07-25T00:48:51;97696.09;;;20.35;70.71
72525;BME280;60547;48.502;8.996;2022-07-25T00:51:16;97697.19;;;20.49;70.21
72525;BME280;60547;48.502;8.996;2022-07-25T00:53:42;97694.13;;;20.47;69.70
72525;BME280;60547;48.502;8.996;2022-07-25T00:56:08;97698.75;;;20.50;70.06
72525;BME280;60547;48.502;8.996;2022-07-25T00:58:34;97699.78;;;20.52;69.94
72525;BME280;60547;48.502;8.996;2022-07-25T01:01:00;97700.53;;;20.47;70.19
72525;BME280;60547;48.502;8.996;2022-07-25T01:03:27;97695.13;;;20.44;70.31
72525;BME280;60547;48.502;8.996;2022-07-25T01:05:52;97690.22;;;20.39;70.20
72525;BME280;60547;48.502;8.996;2022-07-25T01:08:20;97683.75;;;20.32;70.54
72525;BME280;60547;48.502;8.996;2022-07-25T01:10:46;97692.03;;;20.42;70.33
72525;BME280;60547;48.502;8.996;2022-07-25T01:13:12;97702.25;;;20.33;71.17
72525;BME280;60547;48.502;8.996;2022-07-25T01:15:38;97699.47;;;20.39;70.59
72525;BME280;60547;48.502;8.996;2022-07-25T01:18:03;97692.31;;;20.44;70.57
72525;BME280;60547;48.502;8.996;2022-07-25T01:20:30;97686.66;;;20.44;70.58
72525;BME280;60547;48.502;8.996;2022-07-25T01:22:56;97678.09;;;20.32;70.68
72525;BME280;60547;48.502;8.996;2022-07-25T01:25:23;97688.28;;;20.13;71.80
72525;BME280;60547;48.502;8.996;2022-07-25T01:27:50;97683.91;;;20.12;71.95
72525;BME280;60547;48.502;8.996;2022-07-25T01:30:16;97686.75;;;20.12;72.46
72525;BME280;60547;48.502;8.996;2022-07-25T01:32:42;97685.72;;;20.10;72.00
72525;BME280;60547;48.502;8.996;2022-07-25T01:35:10;97675.94;;;20.05;72.36
72525;BME280;60547;48.502;8.996;2022-07-25T01:37:36;97676.69;;;20.06;72.37
72525;BME280;60547;48.502;8.996;2022-07-25T01:40:02;97678.75;;;20.05;72.15
72525;BME280;60547;48.502;8.996;2022-07-25T01:42:28;97663.09;;;20.04;72.19
72525;BME280;60547;48.502;8.996;2022-07-25T01:44:54;97673.34;;;20.02;72.16
72525;BME280;60547;48.502;8.996;2022-07-25T01:47:19;97672.31;;;19.99;72.25
72525;BME280;60547;48.502;8.996;2022-07-25T01:49:45;97661.47;;;19.92;71.52
72525;BME280;60547;48.502;8.996;2022-07-25T01:52:11;97667.72;;;20.07;71.06
72525;BME280;60547;48.502;8.996;2022-07-25T01:54:36;97667.72;;;20.07;70.68
72525;BME280;60547;48.502;8.996;2022-07-25T01:57:03;97665.88;;;19.98;70.73
72525;BME280;60547;48.502;8.996;2022-07-25T01:59:28;97662.56;;;20.00;70.41
72525;BME280;60547;48.502;8.996;2022-07-25T02:01:54;97660.16;;;19.82;70.66
72525;BME280;60547;48.502;8.996;2022-07-25T02:04:19;97659.63;;;19.83;71.29
72525;BME280;60547;48.502;8.996;2022-07-25T02:06:45;97657.06;;;19.80;71.23
72525;BME280;60547;48.502;8.996;2022-07-25T02:09:10;97655.47;;;19.73;71.48
72525;BME280;60547;48.502;8.996;2022-07-25T02:11:35;97654.41;;;19.65;71.81
72525;BME280;60547;48.502;8.996;2022-07-25T02:14:01;97660.97;;;19.51;72.49
72525;BME280;60547;48.502;8.996;2022-07-25T02:16:27;97655.41;;;19.62;72.13
72525;BME280;60547;48.502;8.996;2022-07-25T02:18:53;97662.66;;;19.37;73.40
72525;BME280;60547;48.502;8.996;2022-07-25T02:21:18;97649.63;;;19.45;73.11
72525;BME280;60547;48.502;8.996;2022-07-25T02:23:44;97650.09;;;19.38;73.06
72525;BME280;60547;48.502;8.996;2022-07-25T02:26:10;97643.81;;;19.23;73.97
72525;BME280;60547;48.502;8.996;2022-07-25T02:28:36;97635.91;;;19.27;73.96
72525;BME280;60547;48.502;8.996;2022-07-25T02:31:02;97633.28;;;19.18;74.92
72525;BME280;60547;48.502;8.996;2022-07-25T02:33:28;97641.00;;;19.23;74.46
72525;BME280;60547;48.502;8.996;2022-07-25T02:35:54;97633.34;;;19.29;74.14
72525;BME280;60547;48.502;8.996;2022-07-25T02:38:20;97627.16;;;19.25;74.08
72525;BME280;60547;48.502;8.996;2022-07-25T02:40:46;97628.22;;;19.27;74.15
72525;BME280;60547;48.502;8.996;2022-07-25T02:43:12;97630.25;;;19.27;74.16
72525;BME280;60547;48.502;8.996;2022-07-25T02:45:37;97620.97;;;19.21;74.25
72525;BME280;60547;48.502;8.996;2022-07-25T02:48:03;97625.66;;;19.29;74.20
72525;BME280;60547;48.502;8.996;2022-07-25T02:50:29;97627.72;;;19.29;73.76
72525;BME280;60547;48.502;8.996;2022-07-25T02:52:54;97616.34;;;19.18;74.28
72525;BME280;60547;48.502;8.996;2022-07-25T02:55:20;97628.19;;;19.22;74.11
72525;BME280;60547;48.502;8.996;2022-07-25T02:57:45;97633.81;;;19.22;74.14
72525;BME280;60547;48.502;8.996;2022-07-25T03:00:12;97634.03;;;19.18;74.01
72525;BME280;60547;48.502;8.996;2022-07-25T03:02:37;97633.03;;;19.21;73.26
72525;BME280;60547;48.502;8.996;2022-07-25T03:05:08;97624.63;;;19.27;72.74
72525;BME280;60547;48.502;8.996;2022-07-25T03:07:34;97633.53;;;19.20;72.55
72525;BME280;60547;48.502;8.996;2022-07-25T03:09:59;97634.81;;;19.19;72.88
72525;BME280;60547;48.502;8.996;2022-07-25T03:12:25;97631.72;;;19.17;72.98
72525;BME280;60547;48.502;8.996;2022-07-25T03:14:50;97627.09;;;19.14;73.29
72525;BME280;60547;48.502;8.996;2022-07-25T03:17:15;97622.91;;;19.03;73.43
72525;BME280;60547;48.502;8.996;2022-07-25T03:19:42;97621.34;;;19.02;73.61
72525;BME280;60547;48.502;8.996;2022-07-25T03:22:07;97605.63;;;18.90;74.03
72525;BME280;60547;48.502;8.996;2022-07-25T03:24:33;97611.00;;;18.88;74.23
72525;BME280;60547;48.502;8.996;2022-07-25T03:26:58;97607.34;;;18.82;74.39
72525;BME280;60547;48.502;8.996;2022-07-25T03:29:23;97598.03;;;18.70;74.74
72525;BME280;60547;48.502;8.996;2022-07-25T03:31:49;97610.34;;;18.73;74.90
72525;BME280;60547;48.502;8.996;2022-07-25T03:34:14;97612.88;;;18.71;75.23
72525;BME280;60547;48.502;8.996;2022-07-25T03:36:40;97613.44;;;18.75;75.46
72525;BME280;60547;48.502;8.996;2022-07-25T03:39:05;97613.44;;;18.75;75.15
72525;BME280;60547;48.502;8.996;2022-07-25T03:41:30;97601.59;;;18.71;75.46
72525;BME280;60547;48.502;8.996;2022-07-25T03:43:56;97606.56;;;18.82;75.24
72525;BME280;60547;48.502;8.996;2022-07-25T03:46:21;97598.84;;;18.77;75.79
72525;BME280;60547;48.502;8.996;2022-07-25T03:48:47;97607.06;;;18.80;75.61
72525;BME280;60547;48.502;8.996;2022-07-25T03:51:12;97600.06;;;18.70;75.79
72525;BME280;60547;48.502;8.996;2022-07-25T03:53:38;97591.47;;;18.59;75.54
72525;BME280;60547;48.502;8.996;2022-07-25T03:56:24;97596.56;;;18.55;75.73
72525;BME280;60547;48.502;8.996;2022-07-25T03:58:49;97590.88;;;18.49;76.11
72525;BME280;60547;48.502;8.996;2022-07-25T04:01:15;97587.00;;;18.47;76.38
72525;BME280;60547;48.502;8.996;2022-07-25T04:03:40;97594.75;;;18.52;76.13
72525;BME280;60547;48.502;8.996;2022-07-25T04:06:05;97593.97;;;18.51;75.85
72525;BME280;60547;48.502;8.996;2022-07-25T04:08:31;97593.03;;;18.60;74.75
72525;BME280;60547;48.502;8.996;2022-07-25T04:10:57;97579.59;;;18.49;74.47
72525;BME280;60547;48.502;8.996;2022-07-25T04:13:22;97590.94;;;18.55;74.63
72525;BME280;60547;48.502;8.996;2022-07-25T04:15:47;97598.84;;;18.51;74.08
72525;BME280;60547;48.502;8.996;2022-07-25T04:18:13;97590.38;;;18.51;74.30
72525;BME280;60547;48.502;8.996;2022-07-25T04:20:38;97581.53;;;18.37;74.80
72525;BME280;60547;48.502;8.996;2022-07-25T04:23:04;97582.63;;;18.46;74.75
72525;BME280;60547;48.502;8.996;2022-07-25T04:25:29;97576.72;;;18.44;75.02
72525;BME280;60547;48.502;8.996;2022-07-25T04:27:55;97590.66;;;18.53;74.30
72525;BME280;60547;48.502;8.996;2022-07-25T04:30:20;97582.47;;;18.55;74.04
72525;BME280;60547;48.502;8.996;2022-07-25T04:32:46;97567.56;;;18.49;74.11
72525;BME280;60547;48.502;8.996;2022-07-25T04:35:11;97591.44;;;18.53;74.21
72525;BME280;60547;48.502;8.996;2022-07-25T04:37:36;97582.41;;;18.49;74.60
72525;BME280;60547;48.502;8.996;2022-07-25T04:40:03;97590.94;;;18.55;74.44
72525;BME280;60547;48.502;8.996;2022-07-25T04:42:29;97584.47;;;18.49;74.78
72525;BME280;60547;48.502;8.996;2022-07-25T04:44:54;97584.28;;;18.58;74.60
72525;BME280;60547;48.502;8.996;2022-07-25T04:47:20;97571.47;;;18.57;73.78
72525;BME280;60547;48.502;8.996;2022-07-25T04:49:45;97588.09;;;18.55;73.72
72525;BME280;60547;48.502;8.996;2022-07-25T04:52:11;97596.06;;;18.56;74.19
72525;BME280;60547;48.502;8.996;2022-07-25T04:54:36;97587.78;;;18.47;74.16
72525;BME280;60547;48.502;8.996;2022-07-25T04:57:02;97593.75;;;18.55;74.20
72525;BME280;60547;48.502;8.996;2022-07-25T04:59:30;97586.56;;;18.54;74.34
72525;BME280;60547;48.502;8.996;2022-07-25T05:01:56;97580.94;;;18.54;74.37
72525;BME280;60547;48.502;8.996;2022-07-25T05:04:21;97586.84;;;18.56;74.09
72525;BME280;60547;48.502;8.996;2022-07-25T05:06:47;97584.16;;;18.67;74.05
72525;BME280;60547;48.502;8.996;2022-07-25T05:09:12;97588.25;;;18.66;73.51
72525;BME280;60547;48.502;8.996;2022-07-25T05:11:37;97592.69;;;18.78;73.62
72525;BME280;60547;48.502;8.996;2022-07-25T05:14:03;97581.78;;;18.91;73.48
72525;BME280;60547;48.502;8.996;2022-07-25T05:16:28;97580.06;;;18.99;73.58
72525;BME280;60547;48.502;8.996;2022-07-25T05:18:54;97565.13;;;18.93;73.30
72525;BME280;60547;48.502;8.996;2022-07-25T05:21:19;97567.50;;;19.00;73.29
72525;BME280;60547;48.502;8.996;2022-07-25T05:23:45;97567.03;;;19.08;73.11
72525;BME280;60547;48.502;8.996;2022-07-25T05:26:10;97554.72;;;19.05;73.17
72525;BME280;60547;48.502;8.996;2022-07-25T05:28:36;97562.94;;;19.09;73.40
72525;BME280;60547;48.502;8.996;2022-07-25T05:31:01;97585.13;;;19.27;72.93
72525;BME280;60547;48.502;8.996;2022-07-25T05:33:27;97566.38;;;19.24;73.18
72525;BME280;60547;48.502;8.996;2022-07-25T05:35:52;97570.03;;;19.35;72.72
72525;BME280;60547;48.502;8.996;2022-07-25T05:38:18;97562.88;;;19.40;71.74
72525;BME280;60547;48.502;8.996;2022-07-25T05:40:43;97577.53;;;19.44;71.89
72525;BME280;60547;48.502;8.996;2022-07-25T05:43:10;97568.09;;;19.53;71.86
72525;BME280;60547;48.502;8.996;2022-07-25T05:45:35;97568.56;;;19.51;72.21
72525;BME280;60547;48.502;8.996;2022-07-25T05:48:00;97573.50;;;19.56;71.70
72525;BME280;60547;48.502;8.996;2022-07-25T05:50:26;97573.09;;;19.75;71.04
72525;BME280;60547;48.502;8.996;2022-07-25T05:52:51;97540.97;;;19.72;70.52
72525;BME280;60547;48.502;8.996;2022-07-25T05:55:17;97558.22;;;19.85;70.17
72525;BME280;60547;48.502;8.996;2022-07-25T05:57:42;97547.47;;;19.95;70.50
72525;BME280;60547;48.502;8.996;2022-07-25T06:00:08;97554.69;;;19.96;70.56
72525;BME280;60547;48.502;8.996;2022-07-25T06:02:34;97548.00;;;19.99;70.80
72525;BME280;60547;48.502;8.996;2022-07-25T06:04:59;97543.44;;;20.18;70.11
72525;BME280;60547;48.502;8.996;2022-07-25T06:07:25;97530.34;;;20.21;70.26
72525;BME280;60547;48.502;8.996;2022-07-25T06:09:50;97528.56;;;20.35;69.95
72525;BME280;60547;48.502;8.996;2022-07-25T06:12:16;97531.94;;;20.50;69.62
72525;BME280;60547;48.502;8.996;2022-07-25T06:14:41;97532.47;;;20.65;68.88
72525;BME280;60547;48.502;8.996;2022-07-25T06:17:07;97532.44;;;20.99;68.39
72525;BME280;60547;48.502;8.996;2022-07-25T06:19:32;97515.13;;;21.41;66.45
72525;BME280;60547;48.502;8.996;2022-07-25T06:21:58;97520.03;;;22.04;64.25
72525;BME280;60547;48.502;8.996;2022-07-25T06:24:23;97528.00;;;22.47;63.18
72525;BME280;60547;48.502;8.996;2022-07-25T06:26:48;97522.84;;;22.81;61.51
72525;BME280;60547;48.502;8.996;2022-07-25T06:29:14;97523.53;;;22.93;61.36
72525;BME280;60547;48.502;8.996;2022-07-25T06:31:39;97515.38;;;23.08;60.87
72525;BME280;60547;48.502;8.996;2022-07-25T06:34:05;97516.81;;;23.20;59.81
72525;BME280;60547;48.502;8.996;2022-07-25T06:36:30;97514.03;;;23.39;58.99
72525;BME280;60547;48.502;8.996;2022-07-25T06:38:56;97526.41;;;23.66;59.44
72525;BME280;60547;48.502;8.996;2022-07-25T06:41:21;97513.66;;;23.91;57.84
72525;BME280;60547;48.502;8.996;2022-07-25T06:43:47;97510.44;;;24.00;57.09
72525;BME280;60547;48.502;8.996;2022-07-25T06:46:12;97511.97;;;24.01;57.33
72525;BME280;60547;48.502;8.996;2022-07-25T06:48:37;97504.38;;;24.09;57.80
72525;BME280;60547;48.502;8.996;2022-07-25T06:51:03;97514.06;;;24.20;57.86
72525;BME280;60547;48.502;8.996;2022-07-25T06:53:29;97516.31;;;24.27;57.15
72525;BME280;60547;48.502;8.996;2022-07-25T06:55:55;97507.22;;;24.28;56.17
72525;BME280;60547;48.502;8.996;2022-07-25T06:58:20;97503.06;;;24.10;56.59
72525;BME280;60547;48.502;8.996;2022-07-25T07:00:45;97504.44;;;24.23;56.76
72525;BME280;60547;48.502;8.996;2022-07-25T07:03:11;97504.84;;;24.32;56.36
72525;BME280;60547;48.502;8.996;2022-07-25T07:05:38;97492.59;;;24.37;56.30
72525;BME280;60547;48.502;8.996;2022-07-25T07:08:04;97500.25;;;24.61;55.60
72525;BME280;60547;48.502;8.996;2022-07-25T07:10:30;97504.72;;;24.57;55.88
72525;BME280;60547;48.502;8.996;2022-07-25T07:13:08;97506.56;;;24.54;56.82
72525;BME280;60547;48.502;8.996;2022-07-25T07:15:34;97506.72;;;24.62;56.46
72525;BME280;60547;48.502;8.996;2022-07-25T07:17:59;97501.47;;;24.66;56.75
72525;BME280;60547;48.502;8.996;2022-07-25T07:20:25;97499.56;;;24.87;54.22
72525;BME280;60547;48.502;8.996;2022-07-25T07:22:51;97502.63;;;24.89;54.44
72525;BME280;60547;48.502;8.996;2022-07-25T07:25:17;97488.03;;;24.79;53.75
72525;BME280;60547;48.502;8.996;2022-07-25T07:27:43;97492.94;;;24.98;53.20
72525;BME280;60547;48.502;8.996;2022-07-25T07:30:10;97492.81;;;25.03;53.72
72525;BME280;60547;48.502;8.996;2022-07-25T07:32:35;97493.59;;;25.17;53.23
72525;BME280;60547;48.502;8.996;2022-07-25T07:35:01;97490.88;;;25.38;54.32
72525;BME280;60547;48.502;8.996;2022-07-25T07:37:26;97493.50;;;25.49;53.41
72525;BME280;60547;48.502;8.996;2022-07-25T07:39:52;97492.41;;;25.52;52.82
72525;BME280;60547;48.502;8.996;2022-07-25T07:42:17;97487.50;;;25.66;52.80
72525;BME280;60547;48.502;8.996;2022-07-25T07:44:42;97478.28;;;25.73;52.90
72525;BME280;60547;48.502;8.996;2022-07-25T07:47:08;97479.59;;;25.72;53.60
72525;BME280;60547;48.502;8.996;2022-07-25T07:49:33;97472.44;;;25.79;53.69
72525;BME280;60547;48.502;8.996;2022-07-25T07:51:59;97481.41;;;25.96;52.99
72525;BME280;60547;48.502;8.996;2022-07-25T07:54:24;97462.91;;;25.76;52.98
72525;BME280;60547;48.502;8.996;2022-07-25T07:57:08;97473.06;;;25.98;53.08
72525;BME280;60547;48.502;8.996;2022-07-25T07:59:33;97467.69;;;25.94;53.90
72525;BME280;60547;48.502;8.996;2022-07-25T08:01:59;97477.84;;;26.16;53.87
72525;BME280;60547;48.502;8.996;2022-07-25T08:04:24;97471.03;;;26.19;53.61
72525;BME280;60547;48.502;8.996;2022-07-25T08:06:50;97459.25;;;26.36;52.48
72525;BME280;60547;48.502;8.996;2022-07-25T08:09:15;97475.63;;;26.56;52.38
72525;BME280;60547;48.502;8.996;2022-07-25T08:11:41;97468.50;;;26.70;51.76
72525;BME280;60547;48.502;8.996;2022-07-25T08:14:06;97465.28;;;26.95;52.22
72525;BME280;60547;48.502;8.996;2022-07-25T08:16:32;97459.16;;;27.12;50.75
72525;BME280;60547;48.502;8.996;2022-07-25T08:18:57;97459.00;;;27.17;50.50
72525;BME280;60547;48.502;8.996;2022-07-25T08:21:23;97466.13;;;27.31;51.03
72525;BME280;60547;48.502;8.996;2022-07-25T08:23:49;97459.28;;;27.34;50.52
72525;BME280;60547;48.502;8.996;2022-07-25T08:26:14;97456.53;;;27.50;50.18
72525;BME280;60547;48.502;8.996;2022-07-25T08:28:40;97459.63;;;27.59;49.67
72525;BME280;60547;48.502;8.996;2022-07-25T08:31:06;97460.09;;;27.71;49.93
72525;BME280;60547;48.502;8.996;2022-07-25T08:33:31;97464.88;;;27.76;49.91
72525;BME280;60547;48.502;8.996;2022-07-25T08:35:57;97458.66;;;27.93;50.19
72525;BME280;60547;48.502;8.996;2022-07-25T08:38:24;97458.72;;;28.08;48.58
72525;BME280;60547;48.502;8.996;2022-07-25T08:40:50;97463.50;;;28.21;48.09
72525;BME280;60547;48.502;8.996;2022-07-25T08:43:17;97465.28;;;28.24;47.99
72525;BME280;60547;48.502;8.996;2022-07-25T08:48:09;97465.91;;;28.60;48.14
72525;BME280;60547;48.502;8.996;2022-07-25T08:50:34;97457.31;;;28.76;47.87
72525;BME280;60547;48.502;8.996;2022-07-25T08:53:00;97448.19;;;29.00;46.02
72525;BME280;60547;48.502;8.996;2022-07-25T08:55:26;97447.75;;;29.26;44.90
72525;BME280;60547;48.502;8.996;2022-07-25T08:57:53;97451.56;;;29.37;44.38
72525;BME280;60547;48.502;8.996;2022-07-25T09:00:21;97446.56;;;29.60;43.79
72525;BME280;60547;48.502;8.996;2022-07-25T09:02:51;97443.84;;;29.70;40.47
72525;BME280;60547;48.502;8.996;2022-07-25T09:05:17;97440.69;;;29.90;39.54
72525;BME280;60547;48.502;8.996;2022-07-25T09:07:44;97435.84;;;30.08;38.94
72525;BME280;60547;48.502;8.996;2022-07-25T09:10:21;97421.53;;;30.33;38.42
72525;BME280;60547;48.502;8.996;2022-07-25T09:13:01;97423.28;;;30.61;35.39
72525;BME280;60547;48.502;8.996;2022-07-25T09:18:29;97415.00;;;30.90;34.96
72525;BME280;60547;48.502;8.996;2022-07-25T09:20:59;97420.19;;;31.09;34.49
72525;BME280;60547;48.502;8.996;2022-07-25T09:26:05;97416.34;;;31.31;33.60
72525;BME280;60547;48.502;8.996;2022-07-25T09:28:38;97403.50;;;31.32;33.37
72525;BME280;60547;48.502;8.996;2022-07-25T09:31:04;97403.91;;;31.46;33.30
72525;BME280;60547;48.502;8.996;2022-07-25T09:33:30;97394.19;;;31.41;33.77
72525;BME280;60547;48.502;8.996;2022-07-25T09:35:56;97397.13;;;31.68;32.34
72525;BME280;60547;48.502;8.996;2022-07-25T09:38:23;97401.19;;;31.83;32.17
72525;BME280;60547;48.502;8.996;2022-07-25T09:40:54;97402.34;;;31.97;32.48
72525;BME280;60547;48.502;8.996;2022-07-25T09:43:21;97397.41;;;32.07;31.71
72525;BME280;60547;48.502;8.996;2022-07-25T09:45:50;97394.97;;;32.30;30.77
72525;BME280;60547;48.502;8.996;2022-07-25T09:48:18;97388.34;;;32.37;29.29
72525;BME280;60547;48.502;8.996;2022-07-25T09:50:45;97392.34;;;32.52;28.30
72525;BME280;60547;48.502;8.996;2022-07-25T09:53:10;97392.78;;;32.48;28.53
72525;BME280;60547;48.502;8.996;2022-07-25T09:55:39;97398.19;;;32.71;29.74
72525;BME280;60547;48.502;8.996;2022-07-25T09:58:04;97386.72;;;32.90;29.07
72525;BME280;60547;48.502;8.996;2022-07-25T10:00:30;97381.59;;;32.98;28.10
72525;BME280;60547;48.502;8.996;2022-07-25T10:03:03;97390.28;;;33.18;28.09
72525;BME280;60547;48.502;8.996;2022-07-25T10:08:21;97384.66;;;33.10;28.02
72525;BME280;60547;48.502;8.996;2022-07-25T10:10:47;97380.44;;;33.30;27.74
72525;BME280;60547;48.502;8.996;2022-07-25T10:13:14;97387.13;;;33.52;27.22
72525;BME280;60547;48.502;8.996;2022-07-25T10:15:51;97383.19;;;33.57;26.70
72525;BME280;60547;48.502;8.996;2022-07-25T10:18:22;97381.50;;;33.74;26.00
72525;BME280;60547;48.502;8.996;2022-07-25T10:20:49;97378.28;;;33.79;25.87
72525;BME280;60547;48.502;8.996;2022-07-25T10:25:57;97376.78;;;33.78;25.96
72525;BME280;60547;48.502;8.996;2022-07-25T10:28:37;97372.81;;;34.02;25.78
72525;BME280;60547;48.502;8.996;2022-07-25T10:31:16;97364.69;;;34.20;25.17
72525;BME280;60547;48.502;8.996;2022-07-25T10:33:45;97373.66;;;34.34;25.37
72525;BME280;60547;48.502;8.996;2022-07-25T10:36:11;97373.78;;;34.26;25.19
72525;BME280;60547;48.502;8.996;2022-07-25T10:38:38;97363.13;;;34.39;24.90
72525;BME280;60547;48.502;8.996;2022-07-25T10:41:05;97367.03;;;34.53;24.18
72525;BME280;60547;48.502;8.996;2022-07-25T10:43:37;97363.31;;;34.62;23.71
72525;BME280;60547;48.502;8.996;2022-07-25T10:46:11;97352.88;;;34.78;24.17
72525;BME280;60547;48.502;8.996;2022-07-25T10:48:37;97340.88;;;34.82;23.67
72525;BME280;60547;48.502;8.996;2022-07-25T10:51:06;97336.16;;;34.77;24.02
72525;BME280;60547;48.502;8.996;2022-07-25T10:56:03;97341.09;;;35.38;22.78
72525;BME280;60547;48.502;8.996;2022-07-25T10:58:46;97333.56;;;35.23;22.98
72525;BME280;60547;48.502;8.996;2022-07-25T11:01:13;97346.72;;;35.57;23.17
72525;BME280;60547;48.502;8.996;2022-07-25T11:03:40;97340.66;;;35.53;22.89
72525;BME280;60547;48.502;8.996;2022-07-25T11:06:10;97337.81;;;35.65;22.11
72525;BME280;60547;48.502;8.996;2022-07-25T11:08:35;97334.47;;;35.80;21.90
72525;BME280;60547;48.502;8.996;2022-07-25T11:11:01;97330.34;;;35.83;23.09
72525;BME280;60547;48.502;8.996;2022-07-25T11:13:27;97322.78;;;35.90;22.28
72525;BME280;60547;48.502;8.996;2022-07-25T11:15:57;97334.19;;;36.21;22.57
72525;BME280;60547;48.502;8.996;2022-07-25T11:18:34;97326.47;;;36.14;21.53
72525;BME280;60547;48.502;8.996;2022-07-25T11:21:01;97320.06;;;36.27;21.98
72525;BME280;60547;48.502;8.996;2022-07-25T11:23:27;97317.59;;;36.45;21.64
72525;BME280;60547;48.502;8.996;2022-07-25T11:26:05;97316.94;;;36.46;21.44
72525;BME280;60547;48.502;8.996;2022-07-25T11:28:42;97314.19;;;36.48;20.96
72525;BME280;60547;48.502;8.996;2022-07-25T11:31:09;97301.31;;;36.63;21.25
72525;BME280;60547;48.502;8.996;2022-07-25T11:33:36;97307.50;;;36.46;20.89
72525;BME280;60547;48.502;8.996;2022-07-25T11:36:01;97307.34;;;36.67;21.68
72525;BME280;60547;48.502;8.996;2022-07-25T11:38:27;97317.56;;;36.68;21.00
72525;BME280;60547;48.502;8.996;2022-07-25T11:40:53;97299.66;;;36.83;20.72
72525;BME280;60547;48.502;8.996;2022-07-25T11:43:20;97305.47;;;36.83;20.08
72525;BME280;60547;48.502;8.996;2022-07-25T11:45:54;97309.22;;;36.98;20.49
72525;BME280;60547;48.502;8.996;2022-07-25T11:48:20;97300.59;;;37.23;19.89
72525;BME280;60547;48.502;8.996;2022-07-25T11:50:47;97287.19;;;37.18;19.91
72525;BME280;60547;48.502;8.996;2022-07-25T11:53:14;97304.19;;;37.35;19.65
72525;BME280;60547;48.502;8.996;2022-07-25T11:55:42;97289.97;;;37.28;19.69
72525;BME280;60547;48.502;8.996;2022-07-25T11:58:09;97292.09;;;37.27;19.62
72525;BME280;60547;48.502;8.996;2022-07-25T12:00:39;97295.50;;;37.35;19.80
72525;BME280;60547;48.502;8.996;2022-07-25T12:03:07;97292.22;;;37.29;19.50
72525;BME280;60547;48.502;8.996;2022-07-25T12:05:33;97282.31;;;37.46;18.92
72525;BME280;60547;48.502;8.996;2022-07-25T12:08:09;97275.97;;;37.49;18.51
72525;BME280;60547;48.502;8.996;2022-07-25T12:10:36;97283.75;;;37.33;18.97
72525;BME280;60547;48.502;8.996;2022-07-25T12:13:02;97277.13;;;37.07;18.85
72525;BME280;60547;48.502;8.996;2022-07-25T12:15:55;97285.03;;;36.81;19.05
72525;BME280;60547;48.502;8.996;2022-07-25T12:18:21;97277.44;;;36.88;18.43
72525;BME280;60547;48.502;8.996;2022-07-25T12:20:47;97280.63;;;37.17;18.77
72525;BME280;60547;48.502;8.996;2022-07-25T12:23:13;97280.44;;;37.39;18.14
72525;BME280;60547;48.502;8.996;2022-07-25T12:25:42;97272.78;;;37.32;18.11
72525;BME280;60547;48.502;8.996;2022-07-25T12:28:09;97278.06;;;37.61;17.98
72525;BME280;60547;48.502;8.996;2022-07-25T12:30:36;97277.09;;;37.81;18.07
72525;BME280;60547;48.502;8.996;2022-07-25T12:33:03;97280.56;;;37.92;19.04
72525;BME280;60547;48.502;8.996;2022-07-25T12:35:28;97272.56;;;37.78;19.32
72525;BME280;60547;48.502;8.996;2022-07-25T12:37:54;97265.59;;;37.97;18.79
72525;BME280;60547;48.502;8.996;2022-07-25T12:40:20;97268.59;;;38.25;17.02
72525;BME280;60547;48.502;8.996;2022-07-25T12:42:46;97272.25;;;37.86;17.74
72525;BME280;60547;48.502;8.996;2022-07-25T12:45:12;97267.25;;;36.75;18.46
72525;BME280;60547;48.502;8.996;2022-07-25T12:47:41;97260.06;;;36.65;19.27
72525;BME280;60547;48.502;8.996;2022-07-25T12:50:07;97264.22;;;36.27;19.96
72525;BME280;60547;48.502;8.996;2022-07-25T12:52:32;97262.84;;;36.16;20.55
72525;BME280;60547;48.502;8.996;2022-07-25T12:54:58;97261.31;;;35.91;20.85
72525;BME280;60547;48.502;8.996;2022-07-25T12:57:23;97253.56;;;35.61;21.00
72525;BME280;60547;48.502;8.996;2022-07-25T12:59:49;97270.78;;;35.47;20.47
72525;BME280;60547;48.502;8.996;2022-07-25T13:02:15;97274.13;;;35.32;20.81
72525;BME280;60547;48.502;8.996;2022-07-25T13:04:40;97278.09;;;35.27;20.31
72525;BME280;60547;48.502;8.996;2022-07-25T13:07:06;97277.44;;;35.50;20.65
72525;BME280;60547;48.502;8.996;2022-07-25T13:09:31;97276.88;;;35.75;21.30
72525;BME280;60547;48.502;8.996;2022-07-25T13:11:58;97268.50;;;35.90;21.33